createdAt,value
2023-03-21T00:00:48.226Z,3.64
2023-03-21T00:03:19.008Z,3.62
2023-03-21T00:05:50.217Z,3.59
2023-03-21T00:08:22.764Z,3.57
2023-03-21T00:11:00.969Z,3.54
2023-03-21T00:13:33.043Z,3.51
2023-03-21T00:16:13.657Z,3.49
2023-03-21T00:18:54.659Z,3.48
2023-03-21T00:24:16.936Z,3.44
2023-03-21T00:26:46.624Z,3.42
2023-03-21T00:29:15.616Z,3.40
2023-03-21T00:31:43.901Z,3.35
2023-03-21T00:36:41.508Z,3.31
2023-03-21T00:39:10.072Z,3.29
2023-03-21T00:41:42.844Z,3.28
2023-03-21T00:44:16.163Z,3.28
2023-03-21T00:46:57.064Z,3.27
2023-03-21T00:49:34.309Z,3.26
2023-03-21T00:52:15.262Z,3.23
2023-03-21T00:54:45.509Z,3.19
2023-03-21T00:57:13.994Z,3.18
2023-03-21T00:59:42.503Z,3.17
2023-03-21T01:02:15.282Z,3.18
2023-03-21T01:04:44.210Z,3.19
2023-03-21T01:07:12.534Z,3.21
2023-03-21T01:09:40.818Z,3.16
2023-03-21T01:12:10.941Z,3.21
2023-03-21T01:14:39.721Z,3.24
2023-03-21T01:17:08.920Z,3.24
2023-03-21T01:19:51.070Z,3.24
2023-03-21T01:22:20.534Z,3.25
2023-03-21T01:24:57.027Z,3.27
2023-03-21T01:27:29.586Z,3.25
2023-03-21T01:29:58.692Z,3.23
2023-03-21T01:32:28.290Z,3.24
2023-03-21T01:34:56.570Z,3.23
2023-03-21T01:37:26.791Z,3.21
2023-03-21T01:39:56.503Z,3.13
2023-03-21T01:42:24.991Z,3.06
2023-03-21T01:44:54.622Z,2.96
2023-03-21T01:47:23.498Z,2.73
2023-03-21T01:50:05.238Z,2.43
2023-03-21T01:53:04.393Z,2.36
2023-03-21T01:55:34.758Z,2.36
2023-03-21T01:58:09.612Z,2.38
2023-03-21T02:00:58.322Z,2.38
2023-03-21T02:03:50.368Z,2.40
2023-03-21T02:06:50.063Z,2.40
2023-03-21T02:09:37.183Z,2.40
2023-03-21T02:12:11.818Z,2.41
2023-03-21T02:14:45.034Z,2.43
2023-03-21T02:17:47.176Z,2.44
2023-03-21T02:20:37.986Z,2.44
2023-03-21T02:23:29.029Z,2.45
2023-03-21T02:26:05.393Z,2.45
2023-03-21T02:28:42.163Z,2.46
2023-03-21T02:31:42.602Z,2.47
2023-03-21T02:34:34.732Z,2.49
2023-03-21T02:37:17.163Z,2.49
2023-03-21T02:40:13.304Z,2.56
2023-03-21T02:43:03.045Z,2.72
2023-03-21T02:45:52.665Z,2.73
2023-03-21T02:48:38.052Z,2.73
2023-03-21T02:51:16.972Z,2.74
2023-03-21T02:54:23.780Z,2.73
2023-03-21T02:56:46.559Z,2.72
2023-03-21T02:59:34.039Z,2.57
2023-03-21T03:02:12.848Z,2.61
2023-03-21T03:04:55.152Z,2.55
2023-03-21T03:07:38.500Z,2.54
2023-03-21T03:10:16.735Z,2.53
2023-03-21T03:13:28.692Z,2.51
2023-03-21T03:16:26.320Z,2.46
2023-03-21T03:19:12.209Z,2.46
2023-03-21T03:22:01.148Z,2.48
2023-03-21T03:25:04.859Z,2.50
2023-03-21T03:27:52.667Z,2.54
2023-03-21T03:31:01.223Z,2.57
2023-03-21T03:34:14.409Z,2.57
2023-03-21T03:37:11.571Z,2.57
2023-03-21T03:40:24.069Z,2.55
2023-03-21T03:43:44.370Z,2.52
2023-03-21T03:46:54.420Z,2.50
2023-03-21T03:49:57.427Z,2.49
2023-03-21T03:56:03.426Z,2.49
2023-03-21T03:59:05.389Z,2.49
2023-03-21T04:02:37.364Z,2.48
2023-03-21T04:49:43.413Z,2.48
2023-03-21T04:52:36.116Z,2.56
2023-03-21T04:55:21.479Z,2.63
2023-03-21T04:58:06.929Z,2.72
2023-03-21T05:00:51.535Z,2.80
2023-03-21T05:03:53.741Z,2.90
2023-03-21T05:06:53.614Z,3.02
2023-03-21T05:09:39.916Z,3.17
2023-03-21T05:12:33.030Z,3.30
2023-03-21T05:15:19.707Z,3.44
2023-03-21T05:18:19.506Z,3.58
2023-03-21T05:21:31.508Z,3.74
2023-03-21T05:24:30.614Z,3.88
2023-03-21T05:27:41.507Z,4.00
2023-03-21T05:30:26.979Z,4.08
2023-03-21T05:33:26.587Z,4.10
2023-03-21T05:36:12.476Z,4.13
2023-03-21T05:38:52.499Z,4.20
2023-03-21T05:41:47.645Z,4.27
2023-03-21T05:50:59.590Z,4.66
2023-03-21T05:53:49.695Z,4.86
2023-03-21T05:56:36.805Z,5.04
2023-03-21T06:02:36.554Z,5.46
2023-03-21T06:05:06.487Z,5.63
2023-03-21T06:07:40.982Z,5.78
2023-03-21T06:10:11.824Z,5.91
2023-03-21T06:12:40.818Z,6.02
2023-03-21T06:15:23.951Z,6.16
2023-03-21T06:18:05.319Z,6.30
2023-03-21T06:20:34.127Z,6.44
2023-03-21T06:23:08.663Z,6.57
2023-03-21T06:25:37.441Z,6.67
2023-03-21T06:28:06.063Z,6.80
2023-03-21T06:30:38.501Z,6.92
2023-03-21T06:33:14.358Z,7.03
2023-03-21T06:35:44.689Z,7.17
2023-03-21T06:38:17.775Z,7.28
2023-03-21T06:40:47.137Z,7.38
2023-03-21T06:43:16.687Z,7.46
2023-03-21T06:45:45.565Z,7.57
2023-03-21T06:48:14.024Z,7.68
2023-03-21T06:50:48.254Z,7.80
2023-03-21T06:53:17.587Z,7.92
2023-03-21T06:56:09.633Z,8.07
2023-03-21T06:58:39.644Z,8.15
2023-03-21T07:01:10.005Z,8.23
2023-03-21T07:03:46.802Z,8.34
2023-03-21T07:06:15.579Z,8.48
2023-03-21T07:08:43.921Z,8.60
2023-03-21T07:11:12.210Z,8.67
2023-03-21T07:13:42.632Z,8.78
2023-03-21T07:16:11.079Z,8.87
2023-03-21T07:18:39.410Z,9.00
2023-03-21T07:21:08.689Z,9.13
2023-03-21T07:23:38.437Z,9.25
2023-03-21T07:26:06.989Z,9.36
2023-03-21T07:28:35.082Z,9.50
2023-03-21T07:31:04.534Z,9.66
2023-03-21T07:33:33.668Z,9.82
2023-03-21T07:36:02.372Z,9.95
2023-03-21T07:38:36.266Z,10.09
2023-03-21T07:41:04.619Z,10.22
2023-03-21T07:43:35.322Z,10.30
2023-03-21T07:46:05.132Z,10.43
2023-03-21T07:48:33.688Z,10.58
2023-03-21T07:51:02.682Z,10.74
2023-03-21T07:53:30.954Z,10.87
2023-03-21T07:55:59.453Z,10.94
2023-03-21T07:58:34.477Z,11.08
2023-03-21T08:01:03.063Z,11.21
2023-03-21T08:03:33.439Z,11.28
2023-03-21T08:06:04.023Z,11.41
2023-03-21T08:08:33.744Z,11.57
2023-03-21T08:11:02.320Z,11.73
2023-03-21T08:13:31.316Z,11.87
2023-03-21T08:16:00.132Z,12.01
2023-03-21T08:18:28.706Z,12.14
2023-03-21T08:20:57.189Z,12.22
2023-03-21T08:23:25.662Z,12.31
2023-03-21T08:25:54.477Z,12.40
2023-03-21T08:28:23.764Z,12.48
2023-03-21T08:30:52.926Z,12.60
2023-03-21T08:33:21.342Z,12.76
2023-03-21T08:49:04.017Z,13.48
2023-03-21T08:51:33.831Z,13.95
2023-03-21T08:54:02.329Z,14.06
2023-03-21T08:56:30.721Z,14.18
2023-03-21T08:59:01.763Z,14.31
2023-03-21T09:01:30.295Z,14.41
2023-03-21T09:03:58.965Z,14.48
2023-03-21T09:06:41.235Z,14.58
2023-03-21T09:09:09.671Z,14.69
2023-03-21T09:11:37.881Z,14.78
2023-03-21T09:14:06.261Z,14.93
2023-03-21T09:16:35.554Z,15.07
2023-03-21T09:19:04.691Z,15.16
2023-03-21T09:21:33.807Z,15.25
2023-03-21T09:24:03.038Z,15.33
2023-03-21T09:26:34.673Z,15.41
2023-03-21T09:29:06.153Z,15.46
2023-03-21T09:31:35.014Z,15.54
2023-03-21T09:34:04.113Z,15.65
2023-03-21T09:36:35.248Z,15.75
2023-03-21T09:39:07.399Z,15.88
2023-03-21T09:41:55.795Z,16.00
2023-03-21T09:44:29.734Z,16.09
2023-03-21T09:47:02.879Z,16.15
2023-03-21T09:49:56.585Z,16.24
2023-03-21T09:52:50.982Z,16.39
2023-03-21T09:55:35.293Z,16.51
2023-03-21T09:58:29.334Z,16.61
2023-03-21T10:01:28.571Z,16.68
2023-03-21T10:03:58.768Z,16.78
2023-03-21T10:06:30.892Z,16.81
2023-03-21T10:09:09.497Z,16.83
2023-03-21T10:12:01.275Z,16.92
2023-03-21T10:14:42.441Z,17.04
2023-03-21T10:17:41.447Z,17.13
2023-03-21T10:20:17.647Z,17.27
2023-03-21T10:22:46.994Z,17.40
2023-03-21T10:25:21.156Z,17.52
2023-03-21T10:27:50.818Z,17.62
2023-03-21T10:30:43.123Z,17.68
2023-03-21T10:33:23.330Z,17.66
2023-03-21T10:36:03.081Z,17.65
2023-03-21T10:38:31.486Z,17.62
2023-03-21T10:40:59.905Z,17.56
2023-03-21T10:43:35.053Z,17.62
2023-03-21T10:46:21.458Z,17.75
2023-03-21T10:48:52.640Z,17.89
2023-03-21T10:51:27.737Z,18.01
2023-03-21T10:54:08.463Z,18.12
2023-03-21T10:56:44.254Z,18.26
2023-03-21T10:59:19.445Z,18.36
2023-03-21T11:01:51.735Z,18.41
2023-03-21T11:04:22.686Z,18.45
2023-03-21T11:06:58.247Z,18.48
2023-03-21T11:09:28.299Z,18.46
2023-03-21T11:12:11.555Z,18.46
2023-03-21T11:14:47.632Z,18.43
2023-03-21T11:17:18.773Z,18.40
2023-03-21T11:19:50.061Z,18.37
2023-03-21T11:22:20.810Z,18.28
2023-03-21T11:24:53.244Z,18.14
2023-03-21T11:27:22.352Z,17.99
2023-03-21T11:29:51.646Z,17.93
2023-03-21T11:32:36.737Z,18.02
2023-03-21T11:35:25.925Z,18.17
2023-03-21T11:37:58.481Z,18.16
2023-03-21T11:40:30.225Z,18.09
2023-03-21T11:43:02.277Z,18.07
2023-03-21T11:45:34.096Z,18.04
2023-03-21T11:48:28.457Z,18.03
2023-03-21T11:51:48.714Z,18.12
2023-03-21T11:54:23.305Z,18.20
2023-03-21T11:56:54.317Z,18.32
2023-03-21T11:59:52.707Z,18.37
2023-03-21T12:02:45.434Z,18.40
2023-03-21T12:05:20.456Z,18.37
2023-03-21T12:08:08.544Z,18.32
2023-03-21T12:10:51.402Z,18.27
2023-03-21T12:13:53.976Z,18.23
2023-03-21T12:16:34.432Z,18.32
2023-03-21T12:19:26.221Z,18.50
2023-03-21T12:22:33.434Z,18.71
2023-03-21T12:25:08.894Z,18.89
2023-03-21T12:28:16.953Z,19.03
2023-03-21T12:30:53.902Z,19.02
2023-03-21T12:33:56.092Z,18.88
2023-03-21T12:36:51.799Z,18.88
2023-03-21T12:39:33.312Z,18.89
2023-03-21T12:42:13.970Z,18.93
2023-03-21T12:45:46.774Z,19.04
2023-03-21T12:49:31.254Z,19.21
2023-03-21T12:53:15.233Z,19.34
2023-03-21T12:56:58.852Z,19.38
2023-03-21T13:00:42.855Z,19.34
2023-03-21T13:04:27.281Z,19.15
2023-03-21T13:08:11.807Z,19.07
2023-03-21T13:11:55.678Z,19.00
2023-03-21T13:15:39.894Z,18.90
2023-03-21T13:19:23.728Z,18.96
2023-03-21T13:23:07.775Z,19.03
2023-03-21T13:26:54.084Z,19.04
2023-03-21T13:30:38.478Z,18.87
2023-03-21T13:34:23.126Z,18.62
2023-03-21T13:38:07.477Z,18.60
2023-03-21T13:41:51.296Z,18.60
2023-03-21T13:44:43.946Z,18.47
2023-03-21T13:47:34.420Z,18.43
2023-03-21T13:50:23.310Z,18.44
2023-03-21T13:53:11.093Z,18.44
2023-03-21T13:55:44.626Z,18.37
2023-03-21T13:58:47.124Z,18.28
2023-03-21T14:01:30.581Z,18.12
2023-03-21T14:04:12.429Z,18.03
2023-03-21T14:07:17.176Z,17.98
2023-03-21T14:09:47.365Z,17.89
2023-03-21T14:12:27.598Z,17.77
2023-03-21T14:15:15.901Z,17.69
2023-03-21T14:17:55.457Z,17.61
2023-03-21T14:20:26.564Z,17.57
2023-03-21T14:22:55.444Z,17.58
2023-03-21T14:25:31.234Z,17.58
2023-03-21T14:28:04.124Z,17.57
2023-03-21T14:30:34.793Z,17.54
2023-03-21T14:33:21.680Z,17.49
2023-03-21T14:35:50.177Z,17.42
2023-03-21T14:38:27.653Z,17.36
2023-03-21T14:40:59.157Z,17.31
2023-03-21T14:43:34.224Z,17.22
2023-03-21T14:57:46.743Z,17.02
2023-03-21T15:00:28.099Z,17.00
2023-03-21T15:02:57.403Z,16.88
2023-03-21T15:05:36.931Z,16.81
2023-03-21T15:08:07.955Z,16.71
2023-03-21T15:10:35.052Z,16.61
2023-03-21T15:13:16.565Z,16.51
2023-03-21T15:15:43.937Z,16.39
2023-03-21T15:18:14.596Z,16.28
2023-03-21T15:20:48.535Z,16.18
2023-03-21T15:23:38.298Z,16.09
2023-03-21T15:26:05.412Z,16.01
2023-03-21T15:28:35.793Z,15.95
2023-03-21T15:31:04.442Z,15.87
2023-03-21T15:33:31.951Z,15.82
2023-03-21T15:35:59.766Z,15.77
2023-03-21T15:38:44.555Z,15.70
2023-03-21T15:41:19.825Z,15.63
2023-03-21T15:43:47.394Z,15.57
2023-03-21T15:46:47.729Z,15.50
2023-03-21T15:49:15.620Z,15.40
2023-03-21T15:52:08.687Z,15.34
2023-03-21T15:54:56.457Z,15.27
2023-03-21T15:57:32.444Z,15.21
2023-03-21T16:00:25.648Z,15.16
2023-03-21T16:02:58.798Z,15.10
2023-03-21T16:05:32.820Z,15.05
2023-03-21T16:08:20.514Z,14.99
2023-03-21T16:10:51.515Z,14.93
2023-03-21T16:13:18.941Z,14.88
2023-03-21T16:15:46.556Z,14.84
2023-03-21T16:18:19.628Z,14.78
2023-03-21T16:20:48.569Z,14.74
2023-03-21T16:23:15.461Z,14.69
2023-03-21T16:25:43.262Z,14.67
2023-03-21T16:28:19.374Z,14.65
2023-03-21T16:30:46.561Z,14.62
2023-03-21T16:33:14.246Z,14.58
2023-03-21T16:35:41.747Z,14.52
2023-03-21T16:38:09.935Z,14.46
2023-03-21T16:40:39.006Z,14.41
2023-03-21T16:43:06.864Z,14.36
2023-03-21T16:45:33.779Z,14.30
2023-03-21T16:48:01.126Z,14.25
2023-03-21T16:50:30.441Z,14.22
2023-03-21T16:52:57.785Z,14.16
2023-03-21T16:55:25.212Z,14.09
2023-03-21T16:57:54.203Z,14.05
2023-03-21T17:00:23.819Z,14.00
2023-03-21T17:02:51.524Z,13.96
2023-03-21T17:05:20.239Z,13.92
2023-03-21T17:07:48.941Z,13.88
2023-03-21T17:10:19.871Z,13.85
2023-03-21T17:12:48.182Z,13.80
2023-03-21T17:15:16.597Z,13.76
2023-03-21T17:17:44.823Z,13.73
2023-03-21T17:20:25.857Z,13.73
2023-03-21T17:22:53.172Z,13.72
2023-03-21T17:25:25.582Z,13.71
2023-03-21T17:28:18.594Z,13.70
2023-03-21T17:30:52.974Z,13.65
2023-03-21T17:33:55.072Z,13.60
2023-03-21T17:36:33.334Z,13.56
2023-03-21T17:39:01.035Z,13.51
2023-03-21T17:41:28.517Z,13.48
2023-03-21T17:43:56.356Z,13.44
2023-03-21T17:46:25.121Z,13.22
2023-03-21T17:48:52.035Z,13.17
2023-03-21T17:51:19.226Z,13.25
2023-03-21T17:53:47.938Z,13.24
2023-03-21T17:56:21.872Z,13.21
2023-03-21T17:58:48.908Z,13.15
2023-03-21T18:01:16.203Z,13.11
2023-03-21T18:03:43.141Z,13.08
2023-03-21T18:06:21.130Z,13.06
2023-03-21T18:08:49.047Z,13.00
2023-03-21T18:11:17.131Z,12.89
2023-03-21T18:13:44.738Z,12.78
2023-03-21T18:16:14.722Z,12.68
2023-03-21T18:18:42.465Z,12.59
2023-03-21T18:21:10.305Z,12.51
2023-03-21T18:23:38.802Z,12.47
2023-03-21T18:26:07.653Z,12.41
2023-03-21T18:28:41.134Z,12.40
2023-03-21T18:31:14.336Z,12.39
2023-03-21T18:33:44.702Z,12.40
2023-03-21T18:36:14.317Z,12.35
2023-03-21T18:38:42.889Z,12.33
2023-03-21T18:41:13.066Z,12.30
2023-03-21T18:44:04.740Z,12.31
2023-03-21T18:46:32.782Z,12.30
2023-03-21T18:49:19.822Z,12.27
2023-03-21T18:51:47.501Z,12.23
2023-03-21T18:54:14.561Z,12.22
2023-03-21T18:59:34.198Z,12.23
2023-03-21T19:02:03.223Z,12.22
2023-03-21T19:04:32.195Z,12.20
2023-03-21T19:07:02.616Z,12.24
2023-03-21T19:09:32.089Z,12.27
2023-03-21T19:12:02.714Z,12.31
2023-03-21T19:14:30.051Z,12.35
2023-03-21T19:19:45.766Z,12.35
2023-03-21T19:22:12.545Z,12.33
2023-03-21T19:24:40.087Z,12.33
2023-03-21T19:27:07.131Z,12.32
2023-03-21T19:29:34.299Z,12.30
2023-03-21T19:32:01.179Z,12.28
2023-03-21T19:34:28.975Z,12.28
2023-03-21T19:36:57.163Z,12.29
2023-03-21T19:39:30.473Z,12.28
2023-03-21T19:42:14.686Z,12.29
2023-03-21T19:44:43.072Z,12.29
2023-03-21T19:47:10.863Z,12.28
2023-03-21T19:50:22.486Z,12.26
2023-03-21T19:52:27.242Z,12.23
2023-03-21T19:54:54.247Z,12.21
2023-03-21T19:57:24.926Z,12.20
2023-03-21T19:59:54.414Z,12.19
2023-03-21T20:02:35.167Z,12.19
2023-03-21T20:05:06.666Z,12.18
2023-03-21T20:07:33.738Z,12.17
2023-03-21T20:10:00.657Z,12.16
2023-03-21T20:12:30.215Z,12.12
2023-03-21T20:15:12.416Z,12.09
2023-03-21T20:17:50.018Z,12.05
2023-03-21T20:20:34.544Z,12.01
2023-03-21T20:23:08.535Z,11.97
2023-03-21T20:25:59.922Z,11.94
2023-03-21T20:28:54.879Z,11.93
2023-03-21T20:31:29.261Z,11.91
2023-03-21T20:33:57.774Z,11.90
2023-03-21T20:36:40.689Z,11.88
2023-03-21T20:39:26.511Z,11.87
2023-03-21T20:41:58.968Z,11.85
2023-03-21T20:44:57.188Z,11.84
2023-03-21T20:47:15.152Z,11.84
2023-03-21T20:50:30.870Z,11.82
2023-03-21T20:53:06.783Z,11.80
2023-03-21T20:55:36.063Z,11.78
2023-03-21T20:58:03.014Z,11.76
2023-03-21T21:00:33.547Z,11.74
2023-03-21T21:03:01.361Z,11.71
2023-03-21T21:05:34.310Z,11.64
2023-03-21T21:08:03.107Z,11.65
2023-03-21T21:10:31.777Z,11.59
2023-03-21T21:12:59.932Z,11.53
2023-03-21T21:15:27.679Z,11.50
2023-03-21T21:18:06.041Z,11.44
2023-03-21T21:20:34.655Z,11.41
2023-03-21T21:23:02.961Z,11.41
2023-03-21T21:25:33.445Z,11.42
2023-03-21T21:28:03.377Z,11.43
2023-03-21T21:30:37.444Z,11.45
2023-03-21T21:33:04.974Z,11.45
2023-03-21T21:35:33.160Z,11.45
2023-03-21T21:38:00.859Z,11.47
2023-03-21T21:40:29.095Z,11.49
2023-03-21T21:43:02.930Z,11.51
2023-03-21T21:45:30.210Z,11.51
2023-03-21T21:47:57.474Z,11.50
2023-03-21T21:50:24.458Z,11.52
2023-03-21T21:52:52.059Z,11.55
2023-03-21T21:55:24.924Z,11.55
2023-03-21T21:57:52.491Z,11.46
2023-03-21T22:00:19.540Z,11.41
2023-03-21T22:02:47.221Z,11.40
2023-03-21T22:05:15.940Z,11.38
2023-03-21T22:07:51.524Z,11.39
2023-03-21T22:10:23.441Z,11.41
2023-03-21T22:12:50.861Z,11.45
2023-03-21T22:15:22.112Z,11.49
2023-03-21T22:17:49.612Z,11.54
2023-03-21T22:20:17.896Z,11.57
2023-03-21T22:22:45.594Z,11.56
2023-03-21T22:25:15.505Z,11.56
2023-03-21T22:27:42.667Z,11.47
2023-03-21T22:30:13.143Z,11.42
2023-03-21T22:32:41.256Z,11.37
2023-03-21T22:35:08.613Z,11.36
2023-03-21T22:37:37.665Z,11.30
2023-03-21T22:40:16.055Z,11.23
2023-03-21T22:42:43.126Z,11.19
2023-03-21T22:45:11.667Z,11.17
2023-03-21T22:47:38.690Z,11.15
2023-03-21T22:50:07.032Z,11.14
2023-03-21T22:52:34.315Z,11.12
2023-03-21T22:55:09.574Z,11.07
2023-03-21T22:57:36.943Z,11.00
2023-03-21T23:00:12.468Z,10.94
2023-03-21T23:02:40.431Z,10.84
2023-03-21T23:05:09.311Z,10.75
2023-03-21T23:07:39.394Z,10.70
2023-03-21T23:10:07.341Z,10.69
2023-03-21T23:12:36.037Z,10.72
2023-03-21T23:15:09.798Z,10.74
2023-03-21T23:17:37.465Z,10.72
2023-03-21T23:20:08.139Z,10.70
2023-03-21T23:22:39.289Z,10.69
2023-03-21T23:25:06.979Z,10.71
2023-03-21T23:27:37.351Z,10.76
2023-03-21T23:30:06.857Z,10.82
2023-03-21T23:32:34.439Z,10.89
2023-03-21T23:35:12.569Z,10.94
2023-03-21T23:37:51.496Z,10.96
2023-03-21T23:40:19.213Z,10.97
2023-03-21T23:42:46.161Z,10.98
2023-03-21T23:45:12.943Z,11.03
2023-03-21T23:47:40.017Z,11.09
2023-03-21T23:50:09.536Z,11.15
2023-03-21T23:52:41.699Z,11.22
2023-03-21T23:55:10.710Z,11.27
2023-03-21T23:57:41.289Z,11.32
